Time;durP1;ratioP1;P1;durP2;ratioP2;P2;SDS_P1;SDS_P2;PMS_P1;PMS_P2;Temp;Humidity;BMP_temperature;BMP_pressure;BME280_temperature;BME280_humidity;BME280_pressure;Samples;Min_cycle;Max_cycle;Signal;HPM_P1;HPM_P2
2022/11/04 00:01:06;;;;;;;;;;;;;;;9.96;100.00;99510.50;4990198;28;19944;-80
2022/11/04 00:03:31;;;;;;;;;;;;;;;9.96;100.00;99505.72;4991124;28;20226;-80
2022/11/04 00:05:59;;;;;;;;;;;;;;;9.96;100.00;99504.97;4991815;28;20510;-80
2022/11/04 00:08:24;;;;;;;;;;;;;;;9.94;100.00;99508.19;4990327;28;20152;-80
2022/11/04 00:13:41;;;;;;;;;;;;;;;9.90;100.00;99502.00;4987875;28;19917;-80
2022/11/04 00:18:51;;;;;;;;;;;;;;;9.89;100.00;99491.34;4990378;28;20455;-80
2022/11/04 00:29:28;;;;;;;;;;;;;;;9.84;100.00;99481.59;4990486;28;19918;-80
2022/11/04 00:34:37;;;;;;;;;;;;;;;9.82;100.00;99459.13;4987617;28;19922;-80
2022/11/04 00:37:03;;;;;;;;;;;;;;;9.80;100.00;99465.09;4993351;28;19933;-80
2022/11/04 00:39:28;;;;;;;;;;;;;;;9.80;100.00;99467.09;4992075;28;20370;-80
2022/11/04 00:41:53;;;;;;;;;;;;;;;9.79;100.00;99468.28;4992062;28;20349;-80
2022/11/04 00:44:19;;;;;;;;;;;;;;;9.75;100.00;99459.34;4993118;28;19968;-80
2022/11/04 00:46:44;;;;;;;;;;;;;;;9.73;100.00;99447.94;4993400;28;19922;-80
2022/11/04 00:49:10;;;;;;;;;;;;;;;9.75;100.00;99449.03;4993529;28;19918;-80
2022/11/04 00:51:35;;;;;;;;;;;;;;;9.74;100.00;99443.94;4992994;28;19921;-80
2022/11/04 00:54:00;;;;;;;;;;;;;;;9.74;100.00;99441.97;4994037;28;20953;-80
2022/11/04 00:56:26;;;;;;;;;;;;;;;9.75;100.00;99437.16;4992812;28;20199;-80
2022/11/04 00:58:51;;;;;;;;;;;;;;;9.70;100.00;99435.75;4989583;28;20371;-80
2022/11/04 01:01:17;;;;;;;;;;;;;;;9.68;100.00;99423.56;4992954;28;19953;-80
2022/11/04 01:03:46;;;;;;;;;;;;;;;9.65;100.00;99419.69;4992192;28;20473;-80
2022/11/04 01:06:11;;;;;;;;;;;;;;;9.62;100.00;99430.91;4993532;28;19918;-80
2022/11/04 01:08:37;;;;;;;;;;;;;;;9.61;100.00;99435.66;4991440;28;19936;-80
2022/11/04 01:11:02;;;;;;;;;;;;;;;9.64;100.00;99417.38;4992705;28;20372;-80
2022/11/04 01:13:28;;;;;;;;;;;;;;;9.61;100.00;99421.81;4993071;28;20447;-79
2022/11/04 01:15:56;;;;;;;;;;;;;;;9.57;100.00;99417.59;4993726;28;20016;-80
2022/11/04 01:18:22;;;;;;;;;;;;;;;9.56;100.00;99413.28;4991776;28;19960;-80
2022/11/04 01:20:47;;;;;;;;;;;;;;;9.56;100.00;99416.06;4992196;28;19921;-79
2022/11/04 01:23:12;;;;;;;;;;;;;;;9.51;100.00;99422.13;4993797;28;19948;-80
2022/11/04 01:25:38;;;;;;;;;;;;;;;9.46;100.00;99398.59;4992735;28;19965;-80
2022/11/04 01:28:04;;;;;;;;;;;;;;;9.49;100.00;99405.22;4992860;28;19944;-80
2022/11/04 01:30:29;;;;;;;;;;;;;;;9.43;100.00;99402.22;4991902;28;19971;-80
2022/11/04 01:32:54;;;;;;;;;;;;;;;9.40;100.00;99391.25;4993094;28;20005;-80
2022/11/04 01:35:20;;;;;;;;;;;;;;;9.36;100.00;99389.41;4992129;28;19917;-79
2022/11/04 01:37:45;;;;;;;;;;;;;;;9.38;100.00;99386.19;4991856;28;20075;-79
2022/11/04 01:40:10;;;;;;;;;;;;;;;9.31;100.00;99387.19;4989829;28;19918;-79
2022/11/04 01:42:36;;;;;;;;;;;;;;;9.26;100.00;99373.88;4992557;28;19980;-79
2022/11/04 01:45:01;;;;;;;;;;;;;;;9.23;100.00;99383.09;4992499;28;19918;-79
2022/11/04 01:47:36;;;;;;;;;;;;;;;9.21;100.00;99374.47;4992325;28;19918;-79
2022/11/04 01:50:04;;;;;;;;;;;;;;;9.20;100.00;99361.84;4988613;28;20016;-80
2022/11/04 01:52:49;;;;;;;;;;;;;;;9.21;100.00;99368.94;4968372;28;19922;-80
2022/11/04 01:55:15;;;;;;;;;;;;;;;9.18;100.00;99374.59;4992185;28;19928;-80
2022/11/04 01:57:41;;;;;;;;;;;;;;;9.16;100.00;99369.47;4989062;28;19918;-81
2022/11/04 02:00:07;;;;;;;;;;;;;;;9.18;100.00;99364.25;4990691;28;19917;-81
2022/11/04 02:02:50;;;;;;;;;;;;;;;9.11;100.00;99358.19;4983425;28;19967;-80
2022/11/04 02:05:15;;;;;;;;;;;;;;;9.12;100.00;99351.44;4992010;28;19925;-80
2022/11/04 02:07:40;;;;;;;;;;;;;;;9.09;100.00;99350.34;4990761;28;19926;-80
2022/11/04 02:10:06;;;;;;;;;;;;;;;9.05;100.00;99355.22;4990791;28;19980;-80
2022/11/04 02:12:50;;;;;;;;;;;;;;;9.03;100.00;99345.78;4992121;28;19917;-80
2022/11/04 02:15:16;;;;;;;;;;;;;;;9.03;100.00;99346.56;4983797;28;19928;-80
2022/11/04 02:17:51;;;;;;;;;;;;;;;9.01;100.00;99342.72;4989618;28;19940;-80
2022/11/04 02:20:26;;;;;;;;;;;;;;;8.98;100.00;99338.06;4991914;28;20029;-80
2022/11/04 02:22:57;;;;;;;;;;;;;;;8.98;100.00;99327.75;4990073;28;20381;-80
2022/11/04 02:25:41;;;;;;;;;;;;;;;8.99;100.00;99329.31;4992827;28;20005;-80
2022/11/04 02:28:26;;;;;;;;;;;;;;;8.97;100.00;99342.81;4992387;28;19918;-79
2022/11/04 02:30:52;;;;;;;;;;;;;;;9.00;100.00;99338.38;4984562;28;19918;-80
2022/11/04 02:33:21;;;;;;;;;;;;;;;9.01;100.00;99342.72;4987491;28;19917;-80
2022/11/04 02:35:52;;;;;;;;;;;;;;;9.02;100.00;99327.66;4990600;28;19976;-80
2022/11/04 02:38:28;;;;;;;;;;;;;;;9.05;100.00;99341.38;4989829;28;19918;-81
2022/11/04 02:40:56;;;;;;;;;;;;;;;9.07;100.00;99330.63;5001485;28;20307;-81
2022/11/04 02:43:40;;;;;;;;;;;;;;;9.08;100.00;99320.34;4990634;28;19963;-81
2022/11/04 02:46:26;;;;;;;;;;;;;;;9.05;100.00;99326.78;4991545;28;20008;-80
2022/11/04 02:48:53;;;;;;;;;;;;;;;9.06;100.00;99315.25;4982354;28;19928;-80
2022/11/04 02:51:21;;;;;;;;;;;;;;;9.05;100.00;99307.41;4990070;28;19917;-80
2022/11/04 02:53:51;;;;;;;;;;;;;;;9.02;100.00;99300.75;4990189;28;19940;-80
2022/11/04 02:56:17;;;;;;;;;;;;;;;9.04;100.00;99298.34;4991366;28;19918;-80
2022/11/04 02:58:44;;;;;;;;;;;;;;;9.06;100.00;99290.34;4985985;28;19924;-80
2022/11/04 03:01:10;;;;;;;;;;;;;;;9.02;100.00;99294.47;4988266;28;19952;-80
2022/11/04 03:03:40;;;;;;;;;;;;;;;9.04;100.00;99292.78;4988923;28;19917;-80
2022/11/04 03:06:05;;;;;;;;;;;;;;;9.04;100.00;99292.03;4987064;28;19917;-80
2022/11/04 03:08:34;;;;;;;;;;;;;;;9.06;100.00;99289.59;4988856;28;20065;-80
2022/11/04 03:11:02;;;;;;;;;;;;;;;9.04;100.00;99270.66;4985190;28;19925;-80
2022/11/04 03:13:27;;;;;;;;;;;;;;;9.01;100.00;99277.09;4984786;28;19926;-80
2022/11/04 03:15:56;;;;;;;;;;;;;;;9.03;100.00;99274.66;4990578;28;20295;-80
2022/11/04 03:18:30;;;;;;;;;;;;;;;9.03;100.00;99285.72;4990011;28;19925;-80
2022/11/04 03:20:56;;;;;;;;;;;;;;;9.05;100.00;99276.97;4990963;28;20477;-80
2022/11/04 03:23:21;;;;;;;;;;;;;;;9.03;100.00;99268.34;4990301;28;19917;-80
2022/11/04 03:25:47;;;;;;;;;;;;;;;9.02;100.00;99270.31;4989200;28;20395;-80
2022/11/04 03:28:15;;;;;;;;;;;;;;;9.06;100.00;99267.47;4990288;28;19917;-80
2022/11/04 03:30:44;;;;;;;;;;;;;;;9.01;100.00;99257.72;4989704;28;19918;-80
2022/11/04 03:33:19;;;;;;;;;;;;;;;9.03;100.00;99255.28;4988948;28;19972;-80
2022/11/04 03:35:44;;;;;;;;;;;;;;;9.00;100.00;99247.09;4991202;28;20390;-80
2022/11/04 03:38:09;;;;;;;;;;;;;;;9.01;100.00;99243.91;4991157;28;19918;-80
2022/11/04 03:40:34;;;;;;;;;;;;;;;9.00;100.00;99242.34;4990197;28;19918;-80
2022/11/04 03:43:08;;;;;;;;;;;;;;;9.05;100.00;99244.56;4990765;28;19921;-80
2022/11/04 03:45:34;;;;;;;;;;;;;;;9.07;100.00;99253.16;4990505;28;19980;-80
2022/11/04 03:47:59;;;;;;;;;;;;;;;9.04;100.00;99254.06;4988345;28;19922;-80
2022/11/04 03:50:28;;;;;;;;;;;;;;;9.03;100.00;99232.38;4990791;28;20076;-79
2022/11/04 03:52:54;;;;;;;;;;;;;;;9.04;100.00;99243.00;4978662;28;19930;-80
2022/11/04 03:55:19;;;;;;;;;;;;;;;9.03;100.00;99241.44;4991851;28;20438;-79
2022/11/04 03:57:53;;;;;;;;;;;;;;;9.02;100.00;99244.69;4992995;28;20342;-80
2022/11/04 04:00:19;;;;;;;;;;;;;;;9.04;100.00;99239.47;4995126;28;19924;-80
2022/11/04 04:02:47;;;;;;;;;;;;;;;9.04;100.00;99229.16;4991217;28;19917;-80
2022/11/04 04:05:16;;;;;;;;;;;;;;;9.05;100.00;99227.97;4993906;28;19924;-80
2022/11/04 04:07:43;;;;;;;;;;;;;;;9.04;100.00;99231.16;4991651;28;20004;-80
2022/11/04 04:13:04;;;;;;;;;;;;;;;9.06;100.00;99229.50;4984369;28;20268;-80
2022/11/04 04:15:33;;;;;;;;;;;;;;;9.07;100.00;99225.50;4994181;28;19965;-80
2022/11/04 04:18:00;;;;;;;;;;;;;;;9.05;100.00;99221.66;4992906;28;19922;-80
2022/11/04 04:20:26;;;;;;;;;;;;;;;9.06;100.00;99223.22;4993215;28;19926;-81
2022/11/04 04:22:52;;;;;;;;;;;;;;;9.07;100.00;99222.75;4991263;28;19918;-80
2022/11/04 04:28:01;;;;;;;;;;;;;;;9.05;100.00;99210.59;4990629;28;19932;-81
2022/11/04 04:30:26;;;;;;;;;;;;;;;9.07;100.00;99208.91;4992283;28;19926;-81
2022/11/04 04:32:56;;;;;;;;;;;;;;;9.04;100.00;99193.22;4990991;28;19960;-81
2022/11/04 04:35:40;;;;;;;;;;;;;;;9.08;100.00;99199.41;4993180;28;19921;-81
2022/11/04 04:46:21;;;;;;;;;;;;;;;9.11;100.00;99220.63;4992347;28;19922;-81
2022/11/04 04:48:46;;;;;;;;;;;;;;;9.12;100.00;99205.59;4993443;28;19917;-81
2022/11/04 04:51:11;;;;;;;;;;;;;;;9.13;100.00;99212.66;4990204;28;19961;-81
2022/11/04 04:53:37;;;;;;;;;;;;;;;9.09;100.00;99198.19;4991813;28;19929;-81
2022/11/04 04:56:02;;;;;;;;;;;;;;;9.09;100.00;99195.41;4990942;28;19918;-82
2022/11/04 04:58:27;;;;;;;;;;;;;;;9.09;100.00;99200.94;4993291;28;20394;-81
2022/11/04 05:00:53;;;;;;;;;;;;;;;9.08;100.00;99199.41;4990412;28;19928;-81
2022/11/04 05:03:18;;;;;;;;;;;;;;;9.09;100.00;99195.41;4991303;28;19988;-80
2022/11/04 05:05:44;;;;;;;;;;;;;;;9.09;100.00;99198.19;4992266;28;19922;-80
2022/11/04 05:08:09;;;;;;;;;;;;;;;9.09;100.00;99211.25;4991758;28;20273;-80
2022/11/04 05:10:35;;;;;;;;;;;;;;;9.05;100.00;99202.28;4991301;28;19921;-80
2022/11/04 05:15:44;;;;;;;;;;;;;;;9.03;100.00;99185.34;4991605;28;19918;-80
2022/11/04 05:18:09;;;;;;;;;;;;;;;9.01;100.00;99183.03;4991598;28;19999;-81
2022/11/04 05:20:37;;;;;;;;;;;;;;;9.03;100.00;99179.81;4992527;28;19922;-80
2022/11/04 05:23:02;;;;;;;;;;;;;;;9.00;100.00;99187.03;4990643;28;20461;-80
2022/11/04 05:25:27;;;;;;;;;;;;;;;9.03;100.00;99186.13;4992852;28;19918;-80
2022/11/04 05:27:53;;;;;;;;;;;;;;;9.07;100.00;99191.53;4993436;28;19925;-80
2022/11/04 05:30:18;;;;;;;;;;;;;;;9.06;100.00;99178.94;4993539;28;19976;-80
2022/11/04 05:32:43;;;;;;;;;;;;;;;9.04;100.00;99187.69;4992772;28;20398;-80
2022/11/04 05:35:09;;;;;;;;;;;;;;;9.05;100.00;99186.47;4993585;28;19945;-80
2022/11/04 05:37:34;;;;;;;;;;;;;;;9.04;100.00;99187.69;4987721;28;19921;-80
2022/11/04 05:40:00;;;;;;;;;;;;;;;9.07;100.00;99186.00;4990383;28;19918;-80
2022/11/04 05:42:25;;;;;;;;;;;;;;;9.06;100.00;99185.22;4990265;28;19917;-80
2022/11/04 05:44:51;;;;;;;;;;;;;;;9.08;100.00;99193.88;4990842;28;19925;-80
2022/11/04 05:47:16;;;;;;;;;;;;;;;9.09;100.00;99184.34;4992741;28;20015;-80
2022/11/04 05:49:41;;;;;;;;;;;;;;;9.08;100.00;99193.88;4992393;28;19918;-80
2022/11/04 05:52:07;;;;;;;;;;;;;;;9.11;100.00;99192.97;4986500;28;19964;-79
2022/11/04 05:54:32;;;;;;;;;;;;;;;9.11;100.00;99184.66;4990319;28;19949;-77
2022/11/04 05:56:57;;;;;;;;;;;;;;;9.16;100.00;99189.63;4974829;28;19918;-79
2022/11/04 05:59:23;;;;;;;;;;;;;;;9.19;100.00;99188.72;4980850;28;19925;-79
2022/11/04 06:01:49;;;;;;;;;;;;;;;9.15;100.00;99187.31;4980276;28;19917;-80
2022/11/04 06:04:17;;;;;;;;;;;;;;;9.11;100.00;99187.44;4971713;28;19918;-81
2022/11/04 06:06:43;;;;;;;;;;;;;;;9.13;100.00;99175.94;4971600;28;19996;-81
2022/11/04 06:09:08;;;;;;;;;;;;;;;9.09;100.00;99178.81;4979755;28;19935;-81
2022/11/04 06:11:34;;;;;;;;;;;;;;;9.11;100.00;99187.44;4982233;28;20378;-81
2022/11/04 06:13:59;;;;;;;;;;;;;;;9.11;100.00;99181.91;4982035;28;19917;-80
2022/11/04 06:16:25;;;;;;;;;;;;;;;9.14;100.00;99192.06;4983756;28;19975;-80
2022/11/04 06:18:50;;;;;;;;;;;;;;;9.15;100.00;99185.31;4977065;28;19922;-81
2022/11/04 06:21:17;;;;;;;;;;;;;;;9.19;100.00;99193.50;4982122;28;19917;-79
2022/11/04 06:23:43;;;;;;;;;;;;;;;9.20;100.00;99181.97;4976795;28;19922;-79
2022/11/04 06:26:09;;;;;;;;;;;;;;;9.21;100.00;99191.84;4975442;28;19972;-80
2022/11/04 06:28:34;;;;;;;;;;;;;;;9.23;100.00;99186.63;4978776;28;20043;-79
2022/11/04 06:31:01;;;;;;;;;;;;;;;9.23;100.00;99194.13;4978720;28;20398;-78
2022/11/04 06:33:27;;;;;;;;;;;;;;;9.27;100.00;99192.78;4981548;28;20444;-80
2022/11/04 06:35:55;;;;;;;;;;;;;;;9.27;100.00;99186.47;4985650;28;19918;-80
2022/11/04 06:38:21;;;;;;;;;;;;;;;9.31;100.00;99184.38;4989408;28;20334;-80
2022/11/04 06:40:46;;;;;;;;;;;;;;;9.33;100.00;99182.72;4986504;28;19976;-80
2022/11/04 06:43:11;;;;;;;;;;;;;;;9.36;100.00;99192.88;4987631;28;20008;-78
2022/11/04 06:45:37;;;;;;;;;;;;;;;9.38;100.00;99188.91;4988375;28;20777;-78
2022/11/04 06:48:02;;;;;;;;;;;;;;;9.42;100.00;99187.56;4984987;28;19926;-78
2022/11/04 06:50:27;;;;;;;;;;;;;;;9.42;100.00;99186.78;4986221;28;19983;-79
2022/11/04 06:52:53;;;;;;;;;;;;;;;9.43;100.00;99185.53;4982494;28;20183;-79
2022/11/04 06:55:18;;;;;;;;;;;;;;;9.41;100.00;99188.00;4982532;28;19917;-78
2022/11/04 06:57:44;;;;;;;;;;;;;;;9.41;100.00;99182.47;4982850;28;20379;-79
2022/11/04 07:00:09;;;;;;;;;;;;;;;9.43;100.00;99185.53;4982528;28;19918;-79
2022/11/04 07:02:36;;;;;;;;;;;;;;;9.45;100.00;99194.19;4983841;28;19922;-79
2022/11/04 07:05:01;;;;;;;;;;;;;;;9.46;100.00;99184.66;4982654;28;19929;-79
2022/11/04 07:07:27;;;;;;;;;;;;;;;9.48;100.00;99191.28;4981170;28;19921;-79
2022/11/04 07:09:53;;;;;;;;;;;;;;;9.51;100.00;99197.91;4983644;28;19925;-80
2022/11/04 07:12:18;;;;;;;;;;;;;;;9.54;100.00;99185.94;4984295;28;19918;-79
2022/11/04 07:14:43;;;;;;;;;;;;;;;9.57;100.00;99190.56;4988406;28;19925;-79
2022/11/04 07:17:09;;;;;;;;;;;;;;;9.59;100.00;99188.13;4979608;28;19918;-80
2022/11/04 07:19:34;;;;;;;;;;;;;;;9.63;100.00;99194.28;4985963;28;19925;-79
2022/11/04 07:22:00;;;;;;;;;;;;;;;9.64;100.00;99187.53;4988677;28;20422;-81
2022/11/04 07:24:25;;;;;;;;;;;;;;;9.67;100.00;99183.88;4980980;28;19922;-80
2022/11/04 07:26:52;;;;;;;;;;;;;;;9.66;100.00;99187.88;4981003;28;19980;-79
2022/11/04 07:29:18;;;;;;;;;;;;;;;9.65;100.00;99187.09;4986458;28;19929;-79
2022/11/04 07:31:43;;;;;;;;;;;;;;;9.67;100.00;99179.09;4983221;28;19918;-81
2022/11/04 07:34:09;;;;;;;;;;;;;;;9.68;100.00;99175.13;4984428;28;19917;-78
2022/11/04 07:36:34;;;;;;;;;;;;;;;9.74;100.00;99167.00;4981515;28;19969;-80
2022/11/04 07:39:00;;;;;;;;;;;;;;;9.78;100.00;99175.97;4981329;28;20339;-80
2022/11/04 07:41:26;;;;;;;;;;;;;;;9.86;100.00;99185.53;4987260;28;19952;-80
2022/11/04 07:43:51;;;;;;;;;;;;;;;9.90;100.00;99177.09;4981309;28;19969;-80
2022/11/04 07:46:17;;;;;;;;;;;;;;;9.90;100.00;99177.88;4980405;28;20268;-80
2022/11/04 07:48:42;;;;;;;;;;;;;;;9.91;100.00;99181.41;4988003;28;20101;-80
2022/11/04 07:51:08;;;;;;;;;;;;;;;9.95;100.00;99180.03;4980793;28;19921;-80
2022/11/04 07:53:33;;;;;;;;;;;;;;;9.99;100.00;99166.81;4986962;28;19925;-80
2022/11/04 07:56:02;;;;;;;;;;;;;;;10.02;100.00;99170.69;4978879;28;20313;-80
2022/11/04 07:58:27;;;;;;;;;;;;;;;9.95;100.00;99165.44;4983994;28;19926;-80
2022/11/04 08:00:59;;;;;;;;;;;;;;;10.00;100.00;99162.84;4985438;28;19930;-79
2022/11/04 08:03:25;;;;;;;;;;;;;;;10.01;100.00;99164.38;4981228;28;20441;-79
2022/11/04 08:05:57;;;;;;;;;;;;;;;10.04;100.00;99169.00;4988715;28;19917;-79
2022/11/04 08:08:22;;;;;;;;;;;;;;;10.05;100.00;99170.56;4986006;28;19925;-80
2022/11/04 08:10:51;;;;;;;;;;;;;;;10.10;100.00;99169.97;4989021;28;19918;-79
2022/11/04 08:13:17;;;;;;;;;;;;;;;10.15;100.00;99179.72;4984540;28;19925;-80
2022/11/04 08:15:42;;;;;;;;;;;;;;;10.15;100.00;99168.66;4989448;28;19918;-80
2022/11/04 08:18:07;;;;;;;;;;;;;;;10.11;100.00;99165.97;4982181;28;19937;-80
2022/11/04 08:20:33;;;;;;;;;;;;;;;10.15;100.00;99179.72;4983955;28;19926;-81
2022/11/04 08:22:58;;;;;;;;;;;;;;;10.19;100.00;99164.50;4988466;28;19917;-80
2022/11/04 08:25:23;;;;;;;;;;;;;;;10.19;100.00;99174.81;4986610;28;20087;-80
2022/11/04 08:27:49;;;;;;;;;;;;;;;10.23;100.00;99162.34;4986187;28;20384;-81
2022/11/04 08:30:14;;;;;;;;;;;;;;;10.21;100.00;99159.28;4984362;28;19968;-80
2022/11/04 08:32:39;;;;;;;;;;;;;;;10.26;100.00;99157.91;4988816;28;20311;-80
2022/11/04 08:35:05;;;;;;;;;;;;;;;10.21;100.00;99159.28;4977724;28;20291;-80
2022/11/04 08:37:30;;;;;;;;;;;;;;;10.22;100.00;99144.19;4982549;28;19972;-80
2022/11/04 08:39:56;;;;;;;;;;;;;;;10.27;100.00;99153.91;4980227;28;19922;-80
2022/11/04 08:42:21;;;;;;;;;;;;;;;10.27;100.00;99149.13;4981689;28;19926;-80
2022/11/04 08:44:49;;;;;;;;;;;;;;;10.21;100.00;99150.97;4983950;28;19924;-80
2022/11/04 08:47:14;;;;;;;;;;;;;;;10.20;100.00;99154.94;4985364;28;19922;-80
2022/11/04 08:49:40;;;;;;;;;;;;;;;10.28;100.00;99145.13;4981577;28;19929;-79
2022/11/04 08:52:06;;;;;;;;;;;;;;;10.27;100.00;99160.22;4975659;28;20375;-80
2022/11/04 08:54:31;;;;;;;;;;;;;;;10.23;100.00;99151.25;4989595;28;19924;-80
2022/11/04 08:56:57;;;;;;;;;;;;;;;10.22;100.00;99146.97;4994176;28;20342;-79
2022/11/04 08:59:23;;;;;;;;;;;;;;;10.25;100.00;99153.59;4985941;28;20316;-80
2022/11/04 09:01:49;;;;;;;;;;;;;;;10.16;100.00;99126.59;4982197;28;19972;-80
2022/11/04 09:04:14;;;;;;;;;;;;;;;10.19;100.00;99134.00;4981469;28;19922;-79
2022/11/04 09:06:40;;;;;;;;;;;;;;;10.17;100.00;99127.38;4985288;28;19921;-80
2022/11/04 09:09:08;;;;;;;;;;;;;;;10.23;100.00;99126.31;4991753;28;19917;-80
2022/11/04 09:11:36;;;;;;;;;;;;;;;10.29;100.00;99118.97;4982735;28;19964;-80
2022/11/04 09:14:03;;;;;;;;;;;;;;;10.26;100.00;99119.09;4988677;28;19945;-80
2022/11/04 09:16:29;;;;;;;;;;;;;;;10.21;100.00;99112.16;4990603;28;19933;-80
2022/11/04 09:18:54;;;;;;;;;;;;;;;10.22;100.00;99116.47;4992615;28;19979;-80
2022/11/04 09:21:20;;;;;;;;;;;;;;;10.18;100.00;99095.69;4993228;28;20328;-80
2022/11/04 09:23:45;;;;;;;;;;;;;;;10.23;100.00;99100.63;4986502;28;19914;-81
2022/11/04 09:26:12;;;;;;;;;;;;;;;10.23;100.00;99081.97;4982785;28;19921;-81
2022/11/04 09:28:39;;;;;;;;;;;;;;;10.35;100.00;99079.56;4985874;28;20013;-81
2022/11/04 09:31:05;;;;;;;;;;;;;;;10.36;100.00;99081.09;4991457;28;19925;-80
2022/11/04 09:33:31;;;;;;;;;;;;;;;10.43;100.00;99083.59;4985619;28;19918;-80
2022/11/04 09:35:57;;;;;;;;;;;;;;;10.35;100.00;99074.03;4982034;28;19945;-80
2022/11/04 09:38:22;;;;;;;;;;;;;;;10.33;100.00;99063.38;4982482;28;19913;-80
2022/11/04 09:40:49;;;;;;;;;;;;;;;10.34;100.00;99058.63;4981956;28;19933;-80
2022/11/04 09:43:36;;;;;;;;;;;;;;;10.35;100.00;99055.38;4989269;28;19922;-80
2022/11/04 09:46:01;;;;;;;;;;;;;;;10.37;100.00;99046.59;4983667;28;19948;-80
2022/11/04 09:48:31;;;;;;;;;;;;;;;10.41;100.00;99041.69;4979699;28;20383;-80
2022/11/04 09:50:57;;;;;;;;;;;;;;;10.35;100.00;99038.75;4988454;28;19965;-81
2022/11/04 09:53:26;;;;;;;;;;;;;;;10.36;100.00;99028.41;4988353;28;20112;-82
2022/11/04 09:55:55;;;;;;;;;;;;;;;10.35;100.00;99027.66;4988040;28;19914;-79
2022/11/04 09:58:21;;;;;;;;;;;;;;;10.31;100.00;99020.72;4987993;28;19926;-79
2022/11/04 10:00:56;;;;;;;;;;;;;;;10.29;100.00;99024.72;4987214;28;19933;-79
2022/11/04 10:03:40;;;;;;;;;;;;;;;10.35;100.00;99021.34;4990739;28;19921;-79
2022/11/04 10:06:26;;;;;;;;;;;;;;;10.27;100.00;99015.34;4993417;28;19925;-79
2022/11/04 10:08:54;;;;;;;;;;;;;;;10.26;100.00;99008.25;4962609;28;20009;-79
2022/11/04 10:11:29;;;;;;;;;;;;;;;10.23;100.00;99000.84;4985783;28;19925;-80
2022/11/04 10:14:07;;;;;;;;;;;;;;;10.23;100.00;98981.47;4991510;28;19929;-80
2022/11/04 10:16:41;;;;;;;;;;;;;;;10.26;100.00;98964.69;4992648;28;20375;-80
2022/11/04 10:19:10;;;;;;;;;;;;;;;10.31;100.00;98977.16;4993530;28;19924;-80
2022/11/04 10:21:36;;;;;;;;;;;;;;;10.29;100.00;98974.84;4992386;28;19922;-80
2022/11/04 10:24:06;;;;;;;;;;;;;;;10.32;100.00;98961.28;4991590;28;19921;-80
2022/11/04 10:26:34;;;;;;;;;;;;;;;10.36;100.00;98950.81;4993582;28;19949;-80
2022/11/04 10:29:00;;;;;;;;;;;;;;;10.42;100.00;98946.19;4993052;28;19921;-81
2022/11/04 10:31:25;;;;;;;;;;;;;;;10.37;100.00;98946.81;4988297;28;19921;-80
2022/11/04 10:33:52;;;;;;;;;;;;;;;10.37;100.00;98941.25;4982357;28;19918;-80
2022/11/04 10:36:18;;;;;;;;;;;;;;;10.32;100.00;98930.78;4992928;28;19921;-79
2022/11/04 10:38:45;;;;;;;;;;;;;;;10.32;100.00;98931.56;4992660;28;19917;-80
2022/11/04 10:41:22;;;;;;;;;;;;;;;10.33;100.00;98943.41;4991540;28;19921;-80
2022/11/04 10:43:48;;;;;;;;;;;;;;;10.30;100.00;98942.34;4992872;28;19925;-79
2022/11/04 10:46:23;;;;;;;;;;;;;;;10.29;100.00;98935.25;4992752;28;19917;-80
2022/11/04 10:48:58;;;;;;;;;;;;;;;10.27;100.00;98923.88;4991581;28;19918;-80
2022/11/04 10:51:23;;;;;;;;;;;;;;;10.26;100.00;98923.09;4992980;28;19921;-80
2022/11/04 10:53:53;;;;;;;;;;;;;;;10.28;100.00;98906.75;4988835;28;20400;-80
2022/11/04 10:56:38;;;;;;;;;;;;;;;10.31;100.00;98910.63;4976821;28;20426;-79
2022/11/04 10:59:22;;;;;;;;;;;;;;;10.40;100.00;98901.53;4972293;28;20379;-80
2022/11/04 11:01:53;;;;;;;;;;;;;;;10.43;100.00;98895.06;4991178;28;19960;-80
2022/11/04 11:04:29;;;;;;;;;;;;;;;10.50;100.00;98889.19;4989232;28;20333;-80
2022/11/04 11:06:55;;;;;;;;;;;;;;;10.52;100.00;98878.41;4977642;28;20000;-80
2022/11/04 11:09:27;;;;;;;;;;;;;;;10.48;100.00;98875.78;4989198;28;19918;-80
2022/11/04 11:11:52;;;;;;;;;;;;;;;10.54;100.00;98878.72;4983481;28;19918;-80
2022/11/04 11:14:19;;;;;;;;;;;;;;;10.54;100.00;98870.41;4986290;28;20016;-80
2022/11/04 11:16:44;;;;;;;;;;;;;;;10.56;100.00;98856.84;4972176;28;20064;-80
2022/11/04 11:19:10;;;;;;;;;;;;;;;10.54;100.00;98851.00;4981406;28;20512;-80
2022/11/04 11:21:43;;;;;;;;;;;;;;;10.55;100.00;98847.78;4988312;28;19918;-79
2022/11/04 11:24:15;;;;;;;;;;;;;;;10.57;100.00;98848.06;4985680;28;19940;-80
2022/11/04 11:26:46;;;;;;;;;;;;;;;10.57;100.00;98839.75;4977311;28;20343;-80
2022/11/04 11:29:12;;;;;;;;;;;;;;;10.58;100.00;98829.41;4985149;28;19929;-80
2022/11/04 11:31:38;;;;;;;;;;;;;;;10.51;100.00;98818.66;4984210;28;20283;-80
2022/11/04 11:34:04;;;;;;;;;;;;;;;10.57;100.00;98816.78;4990796;28;20299;-80
2022/11/04 11:36:30;;;;;;;;;;;;;;;10.55;100.00;98802.63;4981418;28;19914;-80
2022/11/04 11:39:02;;;;;;;;;;;;;;;10.54;100.00;98790.00;4978039;28;19918;-80
2022/11/04 11:41:30;;;;;;;;;;;;;;;10.57;100.00;98791.81;4988257;28;19921;-80
2022/11/04 11:43:57;;;;;;;;;;;;;;;10.63;100.00;98789.97;4984608;28;20406;-79
2022/11/04 11:46:23;;;;;;;;;;;;;;;10.68;100.00;98783.78;4989387;28;19924;-79
2022/11/04 11:48:49;;;;;;;;;;;;;;;10.73;100.00;98785.91;4984809;28;19929;-79
2022/11/04 11:51:24;;;;;;;;;;;;;;;10.75;100.00;98794.56;4982675;28;20336;-80
2022/11/04 11:54:08;;;;;;;;;;;;;;;10.79;100.00;98784.06;4982386;28;19973;-80
2022/11/04 11:56:37;;;;;;;;;;;;;;;10.82;100.00;98771.25;4981431;28;19922;-80
2022/11/04 11:59:08;;;;;;;;;;;;;;;10.81;100.00;98776.03;4979469;28;20026;-79
2022/11/04 12:01:41;;;;;;;;;;;;;;;10.84;100.00;98772.31;4986996;28;20331;-80
2022/11/04 12:04:06;;;;;;;;;;;;;;;10.86;100.00;98772.63;4985737;28;20025;-80
2022/11/04 12:06:32;;;;;;;;;;;;;;;10.85;100.00;98775.84;4986339;28;20426;-79
2022/11/04 12:09:00;;;;;;;;;;;;;;;10.78;100.00;98765.88;4981780;28;19922;-79
2022/11/04 12:11:27;;;;;;;;;;;;;;;10.76;100.00;98762.78;4983891;28;19924;-79
2022/11/04 12:13:56;;;;;;;;;;;;;;;10.78;100.00;98752.00;4978585;28;19980;-79
2022/11/04 12:16:39;;;;;;;;;;;;;;;10.77;100.00;98753.25;4983506;28;19922;-79
2022/11/04 12:19:25;;;;;;;;;;;;;;;10.75;100.00;98750.19;4983500;28;19940;-80
2022/11/04 12:21:53;;;;;;;;;;;;;;;10.77;100.00;98736.59;4992109;28;19918;-79
2022/11/04 12:24:28;;;;;;;;;;;;;;;10.82;100.00;98737.97;4990977;28;20012;-79
2022/11/04 12:27:11;;;;;;;;;;;;;;;10.86;100.00;98731.00;4994962;28;19925;-79
2022/11/04 12:29:37;;;;;;;;;;;;;;;10.90;100.00;98726.06;4994225;28;20295;-80
2022/11/04 12:32:10;;;;;;;;;;;;;;;10.89;100.00;98726.53;4988894;28;19919;-80
2022/11/04 12:34:55;;;;;;;;;;;;;;;10.90;100.00;98722.50;4993122;28;20012;-80
2022/11/04 12:37:21;;;;;;;;;;;;;;;10.90;100.00;98720.50;4971507;28;19918;-80
2022/11/04 12:40:03;;;;;;;;;;;;;;;10.90;100.00;98703.88;4989491;28;19926;-80
2022/11/04 12:42:41;;;;;;;;;;;;;;;10.98;100.00;98712.59;4989725;28;20371;-80
2022/11/04 12:45:22;;;;;;;;;;;;;;;11.04;100.00;98699.63;4994255;28;19939;-80
2022/11/04 12:47:47;;;;;;;;;;;;;;;11.03;100.00;98701.63;4993442;28;19922;-80
2022/11/04 12:50:15;;;;;;;;;;;;;;;11.16;100.00;98691.03;4993276;28;19925;-80
2022/11/04 12:52:50;;;;;;;;;;;;;;;11.22;100.00;98689.16;4984297;28;20025;-80
2022/11/04 12:55:15;;;;;;;;;;;;;;;11.38;100.00;98696.28;4983913;28;19921;-80
2022/11/04 12:58:03;;;;;;;;;;;;;;;11.53;100.00;98696.31;4983246;28;19925;-80
2022/11/04 13:00:29;;;;;;;;;;;;;;;11.68;100.00;98697.13;4983772;28;19964;-80
2022/11/04 13:02:58;;;;;;;;;;;;;;;11.84;100.00;98705.03;4984548;28;20323;-80
2022/11/04 13:05:27;;;;;;;;;;;;;;;11.95;100.00;98707.22;4984236;28;19918;-80
2022/11/04 13:08:02;;;;;;;;;;;;;;;12.17;100.00;98706.88;4986088;28;19924;-80
2022/11/04 13:10:31;;;;;;;;;;;;;;;12.07;100.00;98698.63;4987299;28;19922;-80
2022/11/04 13:12:56;;;;;;;;;;;;;;;12.03;100.00;98694.50;4990594;28;19917;-80
2022/11/04 13:15:22;;;;;;;;;;;;;;;12.03;100.00;98700.81;4988155;28;19921;-80
2022/11/04 13:17:52;;;;;;;;;;;;;;;11.95;100.00;98705.22;4988145;28;19928;-81
2022/11/04 13:20:35;;;;;;;;;;;;;;;11.90;100.00;98711.44;4993133;28;19922;-80